Time;durP1;ratioP1;P1;durP2;ratioP2;P2;SDS_P1;SDS_P2;PMS_P1;PMS_P2;Temp;Humidity;BMP_temperature;BMP_pressure;BME280_temperature;BME280_humidity;BME280_pressure;Samples;Min_cycle;Max_cycle;Signal;HPM_P1;HPM_P2
2024/03/29 00:00:48;;;;;;;9.90;2.83;;;;;;;20.95;47.96;99184.37;2366262;75;51620;-83
2024/03/29 00:03:52;;;;;;;7.20;2.45;;;;;;;20.93;47.95;99183.25;2365954;75;50686;-83
2024/03/29 00:06:54;;;;;;;7.72;2.75;;;;;;;20.94;47.91;99192.16;2366033;75;22154;-84
2024/03/29 00:09:57;;;;;;;5.60;2.47;;;;;;;20.92;47.91;99195.06;2333374;75;51101;-83
2024/03/29 00:12:59;;;;;;;5.80;2.25;;;;;;;20.92;47.89;99184.84;2365929;75;51470;-83
2024/03/29 00:16:01;;;;;;;9.18;2.22;;;;;;;20.92;47.88;99187.00;2357493;75;50733;-83
2024/03/29 00:19:03;;;;;;;12.05;2.30;;;;;;;20.92;47.89;99200.98;2331891;75;49244;-83
2024/03/29 00:22:07;;;;;;;6.08;2.12;;;;;;;20.91;47.88;99201.51;2332085;75;50663;-83
2024/03/29 00:25:09;;;;;;;9.33;2.60;;;;;;;20.91;47.85;99204.20;2356638;75;51531;-83
2024/03/29 00:28:11;;;;;;;7.45;2.55;;;;;;;20.91;47.84;99209.58;2330629;75;50523;-82
2024/03/29 00:31:13;;;;;;;8.53;2.12;;;;;;;20.90;47.82;99217.33;2356671;75;50721;-84
2024/03/29 00:34:16;;;;;;;8.85;2.40;;;;;;;20.91;47.84;99239.65;2331562;75;50969;-83
2024/03/29 00:37:23;;;;;;;5.40;2.30;;;;;;;20.91;47.79;99228.39;2331496;75;50606;-84
2024/03/29 00:40:27;;;;;;;7.03;2.02;;;;;;;20.91;47.79;99238.30;2357656;75;21771;-84
2024/03/29 00:43:29;;;;;;;7.37;1.82;;;;;;;20.90;47.76;99242.88;2332331;75;50095;-84
2024/03/29 00:46:31;;;;;;;6.60;2.40;;;;;;;20.90;47.75;99246.91;2356831;75;50731;-85
2024/03/29 00:49:33;;;;;;;8.78;2.20;;;;;;;20.91;47.75;99242.34;2356837;75;50847;-83
2024/03/29 00:52:35;;;;;;;13.43;2.37;;;;;;;20.90;47.70;99241.52;2332017;75;50911;-84
2024/03/29 00:55:38;;;;;;;6.70;2.50;;;;;;;20.89;47.71;99253.34;2356769;75;50721;-84
2024/03/29 00:58:40;;;;;;;5.10;2.10;;;;;;;20.89;47.66;99241.25;2331845;75;49998;-83
2024/03/29 01:01:42;;;;;;;6.92;1.95;;;;;;;20.89;47.69;99252.00;2356813;75;50635;-85
2024/03/29 01:04:44;;;;;;;7.60;1.95;;;;;;;20.88;47.68;99251.19;2357240;75;51447;-84
2024/03/29 01:07:46;;;;;;;5.12;1.60;;;;;;;20.88;47.66;99240.94;2310159;76;51016;-84
2024/03/29 01:10:48;;;;;;;6.10;1.85;;;;;;;20.88;47.70;99240.94;2309425;77;50716;-84
2024/03/29 01:13:51;;;;;;;4.80;2.08;;;;;;;20.89;47.65;99242.59;2309216;76;50221;-83
2024/03/29 01:16:53;;;;;;;7.67;2.25;;;;;;;20.88;47.62;99232.87;2319660;76;50289;-82
2024/03/29 01:19:55;;;;;;;5.40;1.90;;;;;;;20.88;47.62;99243.62;2284546;76;50616;-82
2024/03/29 01:22:57;;;;;;;7.15;2.33;;;;;;;20.88;47.62;99239.59;2260939;76;50156;-82
2024/03/29 01:26:00;;;;;;;6.85;1.77;;;;;;;20.88;47.56;99238.24;2285221;76;51553;-85
2024/03/29 01:29:02;;;;;;;6.08;1.80;;;;;;;20.88;47.57;99237.74;2285757;76;51179;-83
2024/03/29 01:32:05;;;;;;;7.15;1.72;;;;;;;20.88;47.55;99239.59;2282447;76;50020;-82
2024/03/29 01:35:07;;;;;;;6.97;2.15;;;;;;;20.87;47.54;99248.19;2285769;76;51236;-82
2024/03/29 01:38:09;;;;;;;7.35;1.80;;;;;;;20.89;47.52;99246.63;2284840;76;50641;-82
2024/03/29 01:41:12;;;;;;;4.28;1.90;;;;;;;20.90;47.48;99256.31;2319710;76;50668;-83
2024/03/29 01:44:14;;;;;;;5.55;1.77;;;;;;;20.88;47.51;99244.97;2319371;76;50274;-82
2024/03/29 01:47:18;;;;;;;5.97;1.92;;;;;;;20.89;47.51;99249.31;2284942;76;50004;-82
2024/03/29 01:50:20;;;;;;;5.05;1.80;;;;;;;20.88;47.50;99253.03;2318929;76;50306;-83
2024/03/29 01:53:22;;;;;;;6.87;1.80;;;;;;;20.89;47.46;99246.63;2318889;76;51416;-83
2024/03/29 01:56:24;;;;;;;4.95;1.95;;;;;;;20.88;47.48;99243.62;2284615;76;49542;-83
2024/03/29 01:59:27;;;;;;;6.33;1.65;;;;;;;20.87;47.49;99243.34;2318705;76;50339;-83
2024/03/29 02:02:29;;;;;;;4.12;1.60;;;;;;;20.89;47.49;99238.56;2318952;76;51351;-83
2024/03/29 02:05:31;;;;;;;6.03;1.70;;;;;;;20.88;47.46;99242.28;2318539;76;50003;-82
2024/03/29 02:08:34;;;;;;;3.75;1.62;;;;;;;20.89;47.43;99252.00;2318681;76;50354;-82
2024/03/29 02:11:36;;;;;;;5.10;1.72;;;;;;;20.88;47.45;99254.37;2281863;76;51110;-83
2024/03/29 02:14:40;;;;;;;5.15;1.70;;;;;;;20.88;47.45;99251.69;2319793;76;50673;-83
2024/03/29 02:17:42;;;;;;;3.80;1.70;;;;;;;20.87;47.46;99254.91;2319846;76;50711;-84
2024/03/29 02:20:45;;;;;;;7.87;2.30;;;;;;;20.87;47.43;99253.56;2284708;76;50439;-82
2024/03/29 02:23:50;;;;;;;5.95;1.80;;;;;;;20.88;47.41;99255.22;2319240;76;51294;-84
2024/03/29 02:26:52;;;;;;;7.47;1.55;;;;;;;20.88;47.39;99258.41;2319222;76;50842;-83
2024/03/29 02:29:54;;;;;;;3.60;1.40;;;;;;;20.88;47.35;99253.03;2319113;76;50324;-83
2024/03/29 02:32:57;;;;;;;6.28;1.95;;;;;;;20.88;47.33;99261.09;2319278;76;50655;-83
2024/03/29 02:35:59;;;;;;;5.80;1.77;;;;;;;20.87;47.35;99263.50;2285261;76;50935;-84
2024/03/29 02:39:01;;;;;;;3.90;1.52;;;;;;;20.87;47.30;99266.20;2319238;76;50321;-83
2024/03/29 02:42:03;;;;;;;5.15;1.50;;;;;;;20.87;47.30;99279.10;2319195;76;50338;-85
2024/03/29 02:45:06;;;;;;;5.17;1.62;;;;;;;20.84;47.29;99267.48;2285110;76;51574;-84
2024/03/29 02:48:08;;;;;;;4.28;1.82;;;;;;;20.87;47.32;99272.38;2284095;76;50176;-83
2024/03/29 02:51:10;;;;;;;3.90;1.70;;;;;;;20.87;47.26;99275.61;2285292;76;51478;-83
2024/03/29 02:54:12;;;;;;;3.72;1.45;;;;;;;20.86;47.27;99280.17;2319808;76;50324;-83
2024/03/29 02:57:15;;;;;;;6.90;1.60;;;;;;;20.87;47.22;99287.17;2286119;76;50711;-82
2024/03/29 03:00:17;;;;;;;4.67;1.60;;;;;;;20.87;47.20;99271.57;2282711;76;49579;-83
2024/03/29 03:03:19;;;;;;;4.28;1.70;;;;;;;20.88;47.22;99277.23;2286406;76;51651;-82
2024/03/29 03:06:22;;;;;;;6.65;1.92;;;;;;;20.86;47.22;99272.10;2319639;76;51443;-82
2024/03/29 03:12:44;;;;;;;3.22;1.35;;;;;;;20.87;47.17;99290.39;2320124;76;23516;-84
2024/03/29 03:15:46;;;;;;;3.80;1.60;;;;;;;20.85;47.17;99303.23;2315441;76;51432;-83
2024/03/29 03:18:50;;;;;;;4.03;1.60;;;;;;;20.86;47.15;99303.02;2307245;77;51395;-82
2024/03/29 03:21:53;;;;;;;5.15;1.85;;;;;;;20.87;47.16;99302.48;2307284;77;52014;-83
2024/03/29 03:24:55;;;;;;;4.90;1.60;;;;;;;20.86;47.16;99300.33;2283083;77;49948;-83
2024/03/29 03:27:57;;;;;;;4.67;1.60;;;;;;;20.87;47.12;99301.95;2307117;77;50750;-82
2024/03/29 03:30:59;;;;;;;3.87;1.57;;;;;;;20.87;47.12;99295.77;2283519;77;50374;-83
2024/03/29 03:34:01;;;;;;;4.55;1.75;;;;;;;20.84;47.07;99311.84;2282979;77;50024;-84
2024/03/29 03:37:04;;;;;;;3.25;1.32;;;;;;;20.86;47.08;99317.00;2283081;77;51324;-83
2024/03/29 03:40:07;;;;;;;3.72;1.55;;;;;;;20.84;47.07;99321.25;2283427;76;51558;-83
2024/03/29 03:43:10;;;;;;;4.85;1.65;;;;;;;20.83;47.02;99318.27;2282394;77;50633;-81
2024/03/29 03:46:12;;;;;;;3.58;1.40;;;;;;;20.82;47.06;99322.52;2307281;77;51209;-83
2024/03/29 03:49:14;;;;;;;4.70;1.30;;;;;;;20.83;47.03;99318.27;2283575;77;50923;-82
2024/03/29 03:52:16;;;;;;;4.65;1.47;;;;;;;20.83;47.03;99318.27;2307825;77;51480;-83
2024/03/29 03:55:18;;;;;;;3.83;1.65;;;;;;;20.83;47.06;99323.66;2283400;77;51432;-83
2024/03/29 03:58:21;;;;;;;5.05;1.50;;;;;;;20.82;47.03;99313.11;2283375;77;50080;-83
2024/03/29 04:01:23;;;;;;;3.00;1.70;;;;;;;20.83;47.02;99303.48;2283421;77;51434;-83
2024/03/29 04:04:25;;;;;;;4.03;1.60;;;;;;;20.82;47.00;99286.23;2282190;77;52020;-83
2024/03/29 04:07:27;;;;;;;3.00;1.40;;;;;;;20.82;46.99;99286.23;2307170;77;51526;-82
2024/03/29 04:10:29;;;;;;;2.55;1.42;;;;;;;20.81;46.97;99281.92;2283192;77;51498;-82
2024/03/29 04:13:32;;;;;;;2.58;1.40;;;;;;;20.81;46.91;99287.30;2283011;77;51102;-83
2024/03/29 04:16:34;;;;;;;4.72;1.52;;;;;;;20.81;46.90;99285.95;2286787;76;50600;-82
2024/03/29 04:19:36;;;;;;;4.22;1.37;;;;;;;20.80;46.90;99297.20;2322099;76;51449;-81
2024/03/29 04:22:38;;;;;;;2.90;1.20;;;;;;;20.81;46.86;99296.70;2288435;76;49555;-82
2024/03/29 04:25:40;;;;;;;2.40;1.25;;;;;;;20.81;46.85;99292.67;2322318;76;50758;-82
2024/03/29 04:28:43;;;;;;;3.00;1.37;;;;;;;20.81;46.86;99296.70;2288295;76;51027;-82
2024/03/29 04:31:46;;;;;;;4.58;1.35;;;;;;;20.81;46.81;99299.39;2321931;76;50730;-83
2024/03/29 04:34:52;;;;;;;4.37;1.27;;;;;;;20.80;46.81;99298.55;2322010;76;51537;-83
2024/03/29 04:37:54;;;;;;;6.80;1.47;;;;;;;20.80;46.84;99295.05;2288028;76;50042;-83
2024/03/29 04:40:57;;;;;;;6.10;1.50;;;;;;;20.81;46.81;99284.61;2321982;76;51555;-84
2024/03/29 04:43:59;;;;;;;2.50;1.17;;;;;;;20.81;46.78;99277.35;2322243;76;50390;-82
2024/03/29 04:47:02;;;;;;;4.45;1.55;;;;;;;20.80;46.82;99300.42;2322180;76;50686;-82
2024/03/29 04:50:04;;;;;;;2.95;1.72;;;;;;;20.81;46.82;99291.33;2289031;76;50751;-83
2024/03/29 04:53:08;;;;;;;3.95;1.30;;;;;;;20.80;46.82;99286.98;2288116;76;51361;-82
2024/03/29 04:56:10;;;;;;;3.45;1.27;;;;;;;20.79;46.81;99295.58;2289724;76;50256;-83
2024/03/29 04:59:13;;;;;;;4.08;1.42;;;;;;;20.80;46.83;99286.98;2289920;76;50933;-82
2024/03/29 05:02:15;;;;;;;4.37;1.37;;;;;;;20.80;46.80;99298.55;2323834;76;50753;-83
2024/03/29 05:05:17;;;;;;;2.33;1.02;;;;;;;20.80;46.79;99291.02;2286523;76;50826;-83
2024/03/29 05:08:21;;;;;;;2.70;1.00;;;;;;;20.80;46.73;99277.57;2323987;76;51483;-83
2024/03/29 05:11:24;;;;;;;3.60;1.40;;;;;;;20.80;46.76;99292.36;2323697;76;50713;-84
2024/03/29 05:14:26;;;;;;;1.57;1.10;;;;;;;20.78;46.72;99304.70;2323608;76;51445;-82
2024/03/29 05:17:28;;;;;;;2.42;1.37;;;;;;;20.79;46.66;99288.05;2287708;76;50738;-83
2024/03/29 05:20:31;;;;;;;4.05;1.40;;;;;;;20.78;46.64;99298.48;2320097;76;51482;-83
2024/03/29 05:23:33;;;;;;;2.90;1.00;;;;;;;20.79;46.62;99296.11;2285752;76;51458;-82
2024/03/29 05:26:35;;;;;;;2.20;1.22;;;;;;;20.80;46.49;99301.23;2319438;76;50661;-84
2024/03/29 05:29:38;;;;;;;2.90;1.30;;;;;;;20.80;46.53;99294.52;2260238;76;50993;-82
2024/03/29 05:32:40;;;;;;;2.33;1.00;;;;;;;20.80;46.53;99315.20;2318959;76;52355;-82
2024/03/29 05:35:42;;;;;;;3.47;1.02;;;;;;;20.80;46.47;99317.37;2284632;76;50674;-82
2024/03/29 05:38:44;;;;;;;4.03;1.40;;;;;;;20.80;46.50;99311.17;2285235;76;51636;-83
2024/03/29 05:41:47;;;;;;;6.47;1.37;;;;;;;20.82;46.46;99317.15;2318752;76;50728;-82
2024/03/29 05:44:49;;;;;;;5.72;1.07;;;;;;;20.79;46.64;99313.05;2284998;76;49486;-83
2024/03/29 05:47:52;;;;;;;2.83;1.30;;;;;;;20.80;46.67;99293.70;2320983;76;50398;-84
2024/03/29 05:50:54;;;;;;;4.22;1.05;;;;;;;20.80;46.77;99291.02;2323125;76;50671;-83
2024/03/29 05:53:56;;;;;;;3.00;0.98;;;;;;;20.81;46.80;99295.36;2288470;76;50052;-84
2024/03/29 05:56:59;;;;;;;4.70;1.15;;;;;;;20.81;46.83;99288.64;2322546;76;50714;-84
2024/03/29 06:00:01;;;;;;;3.47;1.30;;;;;;;20.80;46.82;99309.30;2322726;76;51605;-84
2024/03/29 06:03:03;;;;;;;2.35;1.10;;;;;;;20.81;46.86;99314.17;2325437;74;50626;-84
2024/03/29 06:06:07;;;;;;;5.10;1.07;;;;;;;20.81;46.83;99319.55;2329711;75;51650;-84
2024/03/29 06:09:09;;;;;;;7.50;1.10;;;;;;;20.81;46.87;99318.21;2300385;75;51730;-84
2024/03/29 06:12:11;;;;;;;4.33;1.30;;;;;;;20.82;46.83;99315.80;2286112;76;49949;-84
2024/03/29 06:18:33;;;;;;;13.75;1.95;;;;;;;20.82;47.27;99332.75;2327554;75;22225;-84
2024/03/29 06:21:42;;;;;;;15.05;2.10;;;;;;;20.87;47.61;99338.78;2364478;75;50181;-82
2024/03/29 06:24:44;;;;;;;15.58;1.90;;;;;;;20.86;47.71;99340.66;2356068;75;50903;-84
2024/03/29 06:27:49;;;;;;;16.05;1.87;;;;;;;20.87;47.78;99348.20;2329490;75;50456;-83
2024/03/29 06:30:51;;;;;;;12.43;2.30;;;;;;;20.92;48.42;99366.34;2356677;75;50603;-84
2024/03/29 06:33:54;;;;;;;21.40;2.37;;;;;;;20.92;48.42;99366.34;2331157;75;51821;-84
2024/03/29 06:36:57;;;;;;;16.80;2.52;;;;;;;20.92;48.32;99365.80;2331834;75;50493;-83
2024/03/29 06:39:59;;;;;;;19.60;2.70;;;;;;;20.93;48.30;99360.71;2356641;75;51397;-82
2024/03/29 06:43:02;;;;;;;27.45;3.45;;;;;;;20.94;48.20;99358.86;2330895;75;50152;-80
2024/03/29 06:46:05;;;;;;;24.23;3.08;;;;;;;20.94;48.19;99365.59;2330825;75;50844;-82
2024/03/29 06:49:07;;;;;;;22.27;3.37;;;;;;;20.95;48.17;99359.14;2331248;75;51531;-83
2024/03/29 06:52:10;;;;;;;29.23;3.60;;;;;;;20.96;48.27;99367.50;2330674;75;50069;-81
2024/03/29 06:55:12;;;;;;;17.65;2.95;;;;;;;20.95;48.26;99370.72;2337796;75;52141;-83
2024/03/29 06:58:14;;;;;;;18.12;3.42;;;;;;;20.95;48.21;99380.12;2258435;77;49457;-81
2024/03/29 07:01:16;;;;;;;32.25;3.90;;;;;;;20.94;48.18;99387.91;2307471;77;50352;-81
2024/03/29 07:04:20;;;;;;;24.20;3.70;;;;;;;20.96;48.38;99393.05;2307552;76;50546;-81
2024/03/29 07:07:22;;;;;;;21.42;4.30;;;;;;;20.94;48.45;99400.02;2307621;77;51477;-83
2024/03/29 07:10:24;;;;;;;21.87;3.87;;;;;;;20.97;48.50;99392.02;2283216;77;51950;-83
2024/03/29 07:13:28;;;;;;;34.05;8.80;;;;;;;20.96;48.54;99384.98;2318779;75;51521;-83
2024/03/29 07:16:31;;;;;;;36.55;5.90;;;;;;;20.97;49.04;99384.76;2333847;75;50235;-81
2024/03/29 07:19:33;;;;;;;31.95;5.67;;;;;;;20.99;48.82;99383.16;2356516;75;50335;-82
2024/03/29 07:22:35;;;;;;;22.07;4.80;;;;;;;20.96;48.83;99401.95;2307480;75;50011;-82
2024/03/29 07:25:37;;;;;;;43.90;6.42;;;;;;;20.96;49.08;99412.71;2356141;75;51443;-82
2024/03/29 07:28:40;;;;;;;35.33;5.67;;;;;;;20.97;49.33;99426.44;2351035;75;50163;-82
2024/03/29 07:31:42;;;;;;;34.70;5.25;;;;;;;20.97;49.34;99434.51;2290101;76;50002;-81
2024/03/29 07:34:44;;;;;;;38.80;5.75;;;;;;;20.98;49.29;99425.38;2316396;76;50884;-83
2024/03/29 07:37:49;;;;;;;31.20;4.75;;;;;;;20.97;49.25;99425.09;2316007;76;51469;-82
2024/03/29 07:40:51;;;;;;;29.20;4.92;;;;;;;20.96;49.19;99423.47;2316576;76;22396;-83
2024/03/29 07:43:56;;;;;;;29.48;4.37;;;;;;;20.96;49.14;99433.38;2292278;76;50500;-83
2024/03/29 07:46:58;;;;;;;18.12;4.30;;;;;;;20.96;49.07;99434.72;2318112;76;22645;-83
2024/03/29 07:50:00;;;;;;;25.88;4.50;;;;;;;20.95;49.02;99437.94;2316211;76;50720;-82
2024/03/29 07:53:02;;;;;;;27.27;4.05;;;;;;;20.95;48.95;99445.20;2316251;76;50345;-82
2024/03/29 07:56:05;;;;;;;30.30;4.45;;;;;;;20.95;48.88;99441.16;2285074;76;49956;-82
2024/03/29 07:59:07;;;;;;;32.58;4.55;;;;;;;20.93;48.86;99431.97;2292664;76;51467;-82
2024/03/29 08:02:09;;;;;;;22.80;4.45;;;;;;;20.93;48.80;99441.38;2316608;76;50326;-83
2024/03/29 08:05:11;;;;;;;30.90;4.25;;;;;;;20.93;48.76;99450.79;2291736;76;50357;-83
2024/03/29 08:08:13;;;;;;;27.75;4.22;;;;;;;20.93;48.72;99456.70;2292070;76;50399;-82
2024/03/29 08:11:16;;;;;;;20.72;4.05;;;;;;;20.93;48.69;99468.80;2292399;76;49515;-83
2024/03/29 08:14:18;;;;;;;16.82;3.65;;;;;;;20.93;48.62;99474.17;2316594;76;50658;-84
2024/03/29 08:17:20;;;;;;;21.85;3.62;;;;;;;20.92;48.60;99469.33;2316549;76;50589;-82
2024/03/29 08:20:29;;;;;;;16.70;3.65;;;;;;;20.91;48.52;99465.51;2292437;76;50084;-83
2024/03/29 08:23:27;;;;;;;16.05;3.00;;;;;;;20.91;48.51;99454.75;2317719;76;22697;-80
2024/03/29 08:26:29;;;;;;;26.02;4.03;;;;;;;20.90;48.46;99443.71;2316328;76;50327;-82
2024/03/29 08:29:31;;;;;;;21.25;3.33;;;;;;;20.90;48.42;99450.44;2316538;76;50669;-83
2024/03/29 08:32:33;;;;;;;17.05;3.87;;;;;;;20.89;48.45;99436.17;2316543;76;51688;-82
2024/03/29 08:35:35;;;;;;;18.10;3.45;;;;;;;20.89;48.43;99416.02;2311068;76;51637;-83
2024/03/29 08:38:42;;;;;;;23.92;3.90;;;;;;;20.88;48.45;99415.70;2316347;76;51373;-82
2024/03/29 08:41:44;;;;;;;14.10;2.87;;;;;;;20.88;48.41;99404.94;2316218;76;22384;-82
2024/03/29 08:44:46;;;;;;;17.00;2.90;;;;;;;20.87;48.41;99403.31;2316596;76;22427;-82
2024/03/29 08:47:48;;;;;;;14.85;3.17;;;;;;;20.87;48.41;99384.49;2290737;76;50776;-82
2024/03/29 08:50:50;;;;;;;16.65;3.02;;;;;;;20.87;48.38;99397.41;2315525;76;49606;-82
2024/03/29 08:53:53;;;;;;;16.40;2.92;;;;;;;20.87;48.36;99424.30;2315330;76;50272;-82
2024/03/29 08:56:57;;;;;;;10.63;2.60;;;;;;;20.88;48.31;99429.14;2315154;76;50377;-83
2024/03/29 08:59:59;;;;;;;14.98;2.90;;;;;;;20.86;48.30;99436.11;2291112;76;49246;-83
2024/03/29 09:03:01;;;;;;;20.55;3.65;;;;;;;20.86;48.28;99445.52;2317171;76;50561;-82
2024/03/29 09:06:04;;;;;;;15.90;2.92;;;;;;;20.86;48.24;99436.64;2316529;76;50657;-82
2024/03/29 09:09:06;;;;;;;14.58;2.52;;;;;;;20.86;48.25;99439.33;2285805;76;49941;-83
2024/03/29 09:12:11;;;;;;;16.48;3.50;;;;;;;20.86;48.19;99444.70;2316616;76;50734;-83
2024/03/29 09:15:15;;;;;;;12.23;3.47;;;;;;;20.84;48.18;99433.35;2285551;76;49867;-81
2024/03/29 09:18:23;;;;;;;9.75;2.52;;;;;;;20.84;48.15;99438.73;2315759;75;50281;-82
2024/03/29 09:21:21;;;;;;;15.78;3.30;;;;;;;20.84;48.13;99456.20;2298917;75;21921;-83
2024/03/29 09:24:25;;;;;;;11.10;2.90;;;;;;;20.86;48.14;99454.93;2272806;76;50031;-83
2024/03/29 09:27:28;;;;;;;8.20;2.20;;;;;;;20.83;48.14;99440.60;2273895;77;24048;-83
2024/03/29 09:30:30;;;;;;;11.28;2.65;;;;;;;20.83;48.12;99451.86;2306974;77;51155;-82
2024/03/29 09:33:32;;;;;;;8.10;2.50;;;;;;;20.83;48.09;99451.36;2272967;76;49738;-83
2024/03/29 09:36:34;;;;;;;14.85;2.58;;;;;;;20.82;48.10;99453.73;2307033;77;51835;-82
2024/03/29 09:39:36;;;;;;;11.73;2.50;;;;;;;20.84;48.13;99458.89;2308857;77;50698;-82
2024/03/29 09:42:40;;;;;;;11.22;2.65;;;;;;;20.82;48.15;99461.80;2310654;76;51433;-81
2024/03/29 09:45:43;;;;;;;13.90;2.85;;;;;;;20.83;48.12;99463.45;2311189;74;51391;-81
2024/03/29 09:48:48;;;;;;;9.48;2.27;;;;;;;20.84;48.11;99464.27;2277483;77;50222;-82
2024/03/29 09:51:50;;;;;;;10.23;2.45;;;;;;;20.82;48.10;99457.77;2303521;74;50749;-82
2024/03/29 09:54:53;;;;;;;9.85;2.40;;;;;;;20.84;48.11;99464.27;2310407;76;51008;-82
2024/03/29 09:57:56;;;;;;;10.85;2.20;;;;;;;20.83;48.11;99463.45;2307813;77;50825;-82
2024/03/29 10:00:58;;;;;;;10.08;1.98;;;;;;;20.82;48.11;99452.91;2305255;77;51518;-82
2024/03/29 10:04:00;;;;;;;6.28;2.27;;;;;;;20.85;48.05;99454.61;2297635;76;51452;-83
2024/03/29 10:07:03;;;;;;;9.43;2.50;;;;;;;20.83;48.03;99456.73;2305265;77;50581;-83
2024/03/29 10:10:05;;;;;;;7.08;2.15;;;;;;;20.84;47.96;99454.33;2271670;77;50616;-83
2024/03/29 10:13:07;;;;;;;7.72;1.80;;;;;;;20.85;47.88;99438.48;2271296;77;51040;-83
2024/03/29 10:16:11;;;;;;;6.75;1.82;;;;;;;20.86;47.88;99446.05;2305021;76;51544;-82
2024/03/29 10:19:13;;;;;;;10.63;2.27;;;;;;;20.84;47.90;99437.38;2299785;75;51405;-83
2024/03/29 10:22:16;;;;;;;8.23;1.85;;;;;;;20.83;47.89;99442.45;2250049;78;49516;-83
2024/03/29 10:25:19;;;;;;;9.75;2.05;;;;;;;20.83;47.89;99438.41;2283577;77;51595;-83
2024/03/29 10:28:22;;;;;;;9.58;1.95;;;;;;;20.82;47.97;99428.72;2276980;77;51454;-83
2024/03/29 10:31:24;;;;;;;9.95;1.90;;;;;;;20.81;47.93;99425.22;2278368;78;51727;-82
2024/03/29 10:34:26;;;;;;;9.00;1.95;;;;;;;20.82;47.90;99413.93;2283942;76;51462;-83
2024/03/29 10:37:32;;;;;;;9.38;2.05;;;;;;;20.81;47.89;99401.55;2250177;78;49463;-82
2024/03/29 10:40:32;;;;;;;5.70;1.80;;;;;;;20.82;47.88;99394.58;2283407;76;22322;-83
2024/03/29 10:43:34;;;;;;;5.30;1.77;;;;;;;20.82;47.81;99397.80;2283671;77;50331;-83
2024/03/29 10:46:39;;;;;;;10.48;2.20;;;;;;;20.81;47.79;99389.45;2249989;78;49561;-83
2024/03/29 10:49:41;;;;;;;7.55;1.60;;;;;;;20.81;47.72;99396.17;2283307;78;51348;-82
2024/03/29 10:52:43;;;;;;;6.12;2.10;;;;;;;20.81;47.64;99401.55;2283313;76;50707;-82
2024/03/29 10:55:45;;;;;;;10.48;2.25;;;;;;;20.81;47.57;99395.64;2250118;78;50039;-81
2024/03/29 10:58:50;;;;;;;6.05;2.00;;;;;;;20.81;47.63;99392.95;2283360;78;50169;-84
2024/03/29 11:01:55;;;;;;;7.60;1.93;;;;;;;20.82;47.57;99385.70;2250809;78;50976;-82
2024/03/29 11:04:57;;;;;;;6.20;1.80;;;;;;;20.82;47.57;99383.83;2283561;77;50794;-83
2024/03/29 11:07:59;;;;;;;4.35;1.80;;;;;;;20.84;47.49;99366.14;2283395;78;50264;-83
2024/03/29 11:11:04;;;;;;;9.13;1.98;;;;;;;20.83;47.54;99354.57;2250394;78;49261;-81
2024/03/29 11:14:10;;;;;;;5.17;1.72;;;;;;;20.87;47.54;99357.61;2283377;77;51586;-81
2024/03/29 11:17:13;;;;;;;7.30;2.33;;;;;;;20.88;47.64;99360.58;2283131;78;51560;-82
2024/03/29 11:20:22;;;;;;;9.20;1.80;;;;;;;20.88;47.73;99357.89;2297057;76;50817;-82
2024/03/29 11:23:21;;;;;;;7.70;1.50;;;;;;;20.89;47.76;99355.52;2314736;76;22112;-82
2024/03/29 11:26:23;;;;;;;7.62;1.70;;;;;;;20.88;47.84;99352.02;2290710;76;51045;-81
2024/03/29 11:29:28;;;;;;;4.00;1.55;;;;;;;20.88;47.83;99337.22;2315736;76;50871;-82
2024/03/29 11:32:38;;;;;;;5.80;1.70;;;;;;;20.89;47.80;99328.63;2315483;76;22427;-81
2024/03/29 11:35:41;;;;;;;6.83;1.77;;;;;;;20.88;47.85;99323.78;2290871;76;49750;-82
2024/03/29 11:38:45;;;;;;;4.78;1.60;;;;;;;20.88;47.91;99325.63;2314959;76;50384;-82
2024/03/29 11:41:51;;;;;;;4.85;1.55;;;;;;;20.87;47.93;99333.41;2315341;76;50344;-82
2024/03/29 11:44:53;;;;;;;7.97;1.60;;;;;;;20.87;47.94;99332.06;2290848;76;50634;-83
2024/03/29 11:47:56;;;;;;;3.45;1.00;;;;;;;20.87;47.95;99325.34;2315228;76;50615;-82
2024/03/29 11:50:58;;;;;;;4.40;1.70;;;;;;;20.87;47.87;99324.00;2291036;76;49739;-83
2024/03/29 11:54:04;;;;;;;4.72;1.50;;;;;;;20.87;47.82;99332.06;2316949;76;51474;-81
2024/03/29 11:57:05;;;;;;;;;;;;;;;20.87;47.84;99338.78;2293588;76;50255;-83
2024/03/29 12:00:09;;;;;;;4.40;1.50;;;;;;;20.87;47.78;99337.44;2291318;76;49535;-82
2024/03/29 12:03:11;;;;;;;3.22;1.47;;;;;;;20.87;47.79;99350.89;2291371;76;50338;-82
2024/03/29 12:06:15;;;;;;;4.40;1.72;;;;;;;20.85;47.82;99355.67;2315360;76;50769;-81
2024/03/29 12:09:17;;;;;;;3.85;1.25;;;;;;;20.84;47.80;99354.04;2291115;76;49618;-82
2024/03/29 12:12:19;;;;;;;7.20;1.40;;;;;;;20.86;47.83;99355.98;2315658;76;50459;-83
2024/03/29 12:15:22;;;;;;;4.47;1.40;;;;;;;20.85;47.84;99361.86;2315385;76;50369;-82
2024/03/29 12:18:31;;;;;;;4.35;1.35;;;;;;;20.84;47.72;99360.76;2290832;76;50319;-82
2024/03/29 12:21:28;;;;;;;3.23;1.40;;;;;;;20.86;47.77;99353.30;2313875;76;22711;-83
2024/03/29 12:24:31;;;;;;;3.77;1.00;;;;;;;20.83;47.77;99340.28;2291216;76;50832;-82
2024/03/29 12:27:34;;;;;;;4.60;1.30;;;;;;;20.85;47.85;99342.22;2315894;76;51497;-81
2024/03/29 12:30:36;;;;;;;3.02;1.22;;;;;;;20.85;47.77;99331.47;2316764;76;50771;-80
2024/03/29 12:33:38;;;;;;;3.92;1.20;;;;;;;20.86;47.74;99311.62;2311801;76;50077;-82
2024/03/29 12:36:40;;;;;;;4.42;1.75;;;;;;;20.86;47.77;99299.52;2316734;76;50627;-82
2024/03/29 12:39:42;;;;;;;3.70;1.20;;;;;;;20.86;47.76;99280.70;2293546;76;50594;-81
2024/03/29 12:42:45;;;;;;;5.37;1.25;;;;;;;20.86;47.82;99275.32;2293540;76;51436;-82
2024/03/29 12:45:47;;;;;;;4.85;1.42;;;;;;;20.85;47.79;99265.60;2315373;76;50696;-83
2024/03/29 12:48:51;;;;;;;2.02;1.25;;;;;;;20.87;47.78;99287.17;2291288;76;49579;-83
2024/03/29 12:51:55;;;;;;;2.55;0.95;;;;;;;20.87;47.75;99289.86;2314450;76;50395;-82
2024/03/29 12:54:57;;;;;;;3.42;1.40;;;;;;;20.89;47.75;99299.05;2315563;76;50947;-81
2024/03/29 12:58:00;;;;;;;3.40;0.93;;;;;;;20.90;47.68;99287.23;2291409;76;50151;-82
2024/03/29 13:01:03;;;;;;;4.65;1.60;;;;;;;20.90;47.65;99291.80;2316063;76;51447;-83
2024/03/29 13:04:05;;;;;;;3.65;1.20;;;;;;;20.90;47.63;99297.17;2291084;76;50798;-83
2024/03/29 13:07:08;;;;;;;2.75;1.10;;;;;;;20.90;47.58;99298.52;2291185;76;51510;-84
2024/03/29 13:10:14;;;;;;;4.20;1.40;;;;;;;20.89;47.68;99295.02;2315724;76;51518;-83
2024/03/29 13:13:16;;;;;;;2.55;1.00;;;;;;;20.88;47.64;99306.30;2291529;76;50817;-81
2024/03/29 13:16:18;;;;;;;2.87;1.20;;;;;;;20.89;47.67;99301.74;2317058;75;50293;-82
2024/03/29 13:19:21;;;;;;;3.67;1.12;;;;;;;20.88;47.75;99299.58;2315369;76;50571;-81
2024/03/29 13:22:23;;;;;;;2.10;1.15;;;;;;;20.88;47.78;99283.95;2306669;76;50857;-81
2024/03/29 13:25:25;;;;;;;2.83;1.05;;;;;;;20.88;47.71;99283.95;2341791;75;51979;-81
2024/03/29 13:28:27;;;;;;;2.92;1.27;;;;;;;20.87;47.71;99278.30;2342302;76;50195;-81
2024/03/29 13:31:31;;;;;;;2.90;0.98;;;;;;;20.87;47.65;99271.57;2310133;76;50952;-81
2024/03/29 13:34:33;;;;;;;2.50;1.00;;;;;;;20.87;47.64;99271.57;2341993;75;50697;-81
2024/03/29 13:37:38;;;;;;;2.95;0.90;;;;;;;20.85;47.66;99265.60;2341884;76;51471;-81
2024/03/29 13:40:40;;;;;;;2.75;1.15;;;;;;;20.87;47.58;99266.20;2310243;76;51115;-82
2024/03/29 13:43:42;;;;;;;3.62;1.10;;;;;;;20.86;47.55;99258.66;2310078;75;50700;-82
2024/03/29 13:46:44;;;;;;;2.75;0.88;;;;;;;20.87;47.48;99256.25;2309926;76;50353;-81
2024/03/29 13:49:47;;;;;;;2.65;1.00;;;;;;;20.88;47.55;99253.03;2341989;76;50338;-82
2024/03/29 13:52:49;;;;;;;2.90;1.15;;;;;;;20.87;47.52;99251.41;2341879;76;51388;-80
2024/03/29 13:55:52;;;;;;;2.80;0.98;;;;;;;20.87;47.43;99271.57;2309737;76;50851;-81
2024/03/29 13:58:54;;;;;;;1.82;0.90;;;;;;;20.89;47.24;99256.03;2341970;76;51449;-81
2024/03/29 14:01:56;;;;;;;1.30;0.88;;;;;;;20.91;47.17;99233.77;2341954;76;51501;-83
2024/03/29 14:04:59;;;;;;;2.75;1.22;;;;;;;20.88;47.34;99243.12;2309824;76;52333;-82
2024/03/29 14:08:01;;;;;;;1.30;0.72;;;;;;;20.88;47.36;99231.02;2341698;76;51223;-81
2024/03/29 14:11:03;;;;;;;1.57;0.80;;;;;;;20.89;47.41;99222.42;2341847;76;50554;-81
2024/03/29 14:14:07;;;;;;;1.80;0.90;;;;;;;20.88;47.51;99233.71;2310229;75;51452;-82
2024/03/29 14:17:09;;;;;;;1.42;1.05;;;;;;;20.90;47.40;99256.31;2342024;75;22277;-82
2024/03/29 14:20:11;;;;;;;3.52;1.00;;;;;;;20.90;47.39;99261.69;2309762;76;52454;-81
2024/03/29 14:23:16;;;;;;;2.15;1.10;;;;;;;20.90;47.40;99245.56;2318501;76;50635;-80